sensor_id;sensor_type;location;lat;lon;timestamp;temperature;humidity
1347;DHT22;667;48.796;9.480;2022-11-15T00:01:45;10.90;93.70
1347;DHT22;667;48.796;9.480;2022-11-15T00:04:11;10.90;93.70
1347;DHT22;667;48.796;9.480;2022-11-15T00:06:36;10.90;93.70
1347;DHT22;667;48.796;9.480;2022-11-15T00:09:02;10.90;93.80
1347;DHT22;667;48.796;9.480;2022-11-15T00:11:28;10.90;93.70
1347;DHT22;667;48.796;9.480;2022-11-15T00:13:57;11.00;93.80
1347;DHT22;667;48.796;9.480;2022-11-15T00:16:23;11.00;93.80
1347;DHT22;667;48.796;9.480;2022-11-15T00:18:50;10.90;93.80
1347;DHT22;667;48.796;9.480;2022-11-15T00:21:16;10.90;93.90
1347;DHT22;667;48.796;9.480;2022-11-15T00:23:41;11.00;94.00
1347;DHT22;667;48.796;9.480;2022-11-15T00:26:12;11.00;94.00
1347;DHT22;667;48.796;9.480;2022-11-15T00:28:38;11.00;93.90
1347;DHT22;667;48.796;9.480;2022-11-15T00:31:06;11.00;93.90
1347;DHT22;667;48.796;9.480;2022-11-15T00:33:32;11.00;93.80
1347;DHT22;667;48.796;9.480;2022-11-15T00:36:03;11.00;93.80
1347;DHT22;667;48.796;9.480;2022-11-15T00:38:33;11.00;93.70
1347;DHT22;667;48.796;9.480;2022-11-15T00:40:59;11.00;93.80
1347;DHT22;667;48.796;9.480;2022-11-15T00:43:25;11.00;93.80
1347;DHT22;667;48.796;9.480;2022-11-15T00:45:51;11.00;93.70
1347;DHT22;667;48.796;9.480;2022-11-15T00:48:17;11.00;93.70
1347;DHT22;667;48.796;9.480;2022-11-15T00:50:42;11.00;93.70
1347;DHT22;667;48.796;9.480;2022-11-15T00:53:08;11.00;93.60
1347;DHT22;667;48.796;9.480;2022-11-15T00:55:34;11.00;93.60
1347;DHT22;667;48.796;9.480;2022-11-15T00:57:59;11.00;93.70
1347;DHT22;667;48.796;9.480;2022-11-15T01:00:25;11.00;93.70
1347;DHT22;667;48.796;9.480;2022-11-15T01:02:50;11.00;93.70
1347;DHT22;667;48.796;9.480;2022-11-15T01:05:16;11.00;93.70
1347;DHT22;667;48.796;9.480;2022-11-15T01:07:42;11.00;93.70
1347;DHT22;667;48.796;9.480;2022-11-15T01:10:08;11.00;93.70
1347;DHT22;667;48.796;9.480;2022-11-15T01:12:33;11.00;93.70
1347;DHT22;667;48.796;9.480;2022-11-15T01:14:59;11.00;93.70
1347;DHT22;667;48.796;9.480;2022-11-15T01:17:25;11.00;93.70
1347;DHT22;667;48.796;9.480;2022-11-15T01:19:50;11.00;93.70
1347;DHT22;667;48.796;9.480;2022-11-15T01:22:16;11.00;93.70
1347;DHT22;667;48.796;9.480;2022-11-15T01:24:42;11.00;93.60
1347;DHT22;667;48.796;9.480;2022-11-15T01:27:08;11.00;93.60
1347;DHT22;667;48.796;9.480;2022-11-15T01:29:33;11.00;93.60
1347;DHT22;667;48.796;9.480;2022-11-15T01:31:59;11.00;93.60
1347;DHT22;667;48.796;9.480;2022-11-15T01:34:24;10.90;93.50
1347;DHT22;667;48.796;9.480;2022-11-15T01:36:50;10.90;93.40
1347;DHT22;667;48.796;9.480;2022-11-15T01:39:16;10.90;93.30
1347;DHT22;667;48.796;9.480;2022-11-15T01:41:42;10.90;93.20
1347;DHT22;667;48.796;9.480;2022-11-15T01:47:00;10.80;93.00
1347;DHT22;667;48.796;9.480;2022-11-15T01:49:30;10.80;92.90
1347;DHT22;667;48.796;9.480;2022-11-15T01:51:58;10.70;92.80
1347;DHT22;667;48.796;9.480;2022-11-15T01:54:24;10.70;92.60
1347;DHT22;667;48.796;9.480;2022-11-15T01:57:03;10.60;92.40
1347;DHT22;667;48.796;9.480;2022-11-15T01:59:29;10.60;92.40
1347;DHT22;667;48.796;9.480;2022-11-15T02:01:55;10.60;92.30
1347;DHT22;667;48.796;9.480;2022-11-15T02:04:31;10.50;92.20
1347;DHT22;667;48.796;9.480;2022-11-15T02:06:57;10.50;92.30
1347;DHT22;667;48.796;9.480;2022-11-15T02:09:23;10.50;92.20
1347;DHT22;667;48.796;9.480;2022-11-15T02:11:49;10.50;92.20
1347;DHT22;667;48.796;9.480;2022-11-15T02:14:17;10.50;92.10
1347;DHT22;667;48.796;9.480;2022-11-15T02:17:02;10.40;92.00
1347;DHT22;667;48.796;9.480;2022-11-15T02:27:42;10.30;91.50
1347;DHT22;667;48.796;9.480;2022-11-15T02:30:26;10.30;91.50
1347;DHT22;667;48.796;9.480;2022-11-15T02:35:59;10.20;91.60
1347;DHT22;667;48.796;9.480;2022-11-15T02:43:38;10.10;91.70
1347;DHT22;667;48.796;9.480;2022-11-15T02:49:17;10.10;91.60
1347;DHT22;667;48.796;9.480;2022-11-15T02:51:45;10.00;91.50
1347;DHT22;667;48.796;9.480;2022-11-15T02:54:17;10.10;91.50
1347;DHT22;667;48.796;9.480;2022-11-15T02:56:46;10.00;91.30
1347;DHT22;667;48.796;9.480;2022-11-15T03:01:56;10.00;91.30
1347;DHT22;667;48.796;9.480;2022-11-15T03:09:57;9.90;92.20
1347;DHT22;667;48.796;9.480;2022-11-15T03:15:06;9.90;92.40
1347;DHT22;667;48.796;9.480;2022-11-15T03:17:48;9.90;92.40
1347;DHT22;667;48.796;9.480;2022-11-15T03:20:17;9.90;92.40
1347;DHT22;667;48.796;9.480;2022-11-15T03:22:45;9.90;92.30
1347;DHT22;667;48.796;9.480;2022-11-15T03:25:17;9.90;92.20
1347;DHT22;667;48.796;9.480;2022-11-15T03:27:47;9.90;92.10
1347;DHT22;667;48.796;9.480;2022-11-15T03:30:14;9.90;92.00
1347;DHT22;667;48.796;9.480;2022-11-15T03:32:50;9.90;92.00
1347;DHT22;667;48.796;9.480;2022-11-15T03:35:25;9.90;92.00
1347;DHT22;667;48.796;9.480;2022-11-15T03:40:59;9.80;92.10
1347;DHT22;667;48.796;9.480;2022-11-15T03:43:29;9.80;92.10
1347;DHT22;667;48.796;9.480;2022-11-15T03:46:11;9.80;92.20
1347;DHT22;667;48.796;9.480;2022-11-15T03:48:49;9.80;92.30
1347;DHT22;667;48.796;9.480;2022-11-15T03:51:16;9.80;92.30
1347;DHT22;667;48.796;9.480;2022-11-15T03:53:42;9.80;92.70
1347;DHT22;667;48.796;9.480;2022-11-15T03:56:07;9.80;92.40
1347;DHT22;667;48.796;9.480;2022-11-15T03:58:33;9.80;92.40
1347;DHT22;667;48.796;9.480;2022-11-15T04:00:58;9.80;92.40
1347;DHT22;667;48.796;9.480;2022-11-15T04:03:25;9.80;92.30
1347;DHT22;667;48.796;9.480;2022-11-15T04:05:50;9.80;92.30
1347;DHT22;667;48.796;9.480;2022-11-15T04:08:16;9.90;92.30
1347;DHT22;667;48.796;9.480;2022-11-15T04:10:41;9.80;92.20
1347;DHT22;667;48.796;9.480;2022-11-15T04:13:07;9.80;92.10
1347;DHT22;667;48.796;9.480;2022-11-15T04:15:33;9.80;92.10
1347;DHT22;667;48.796;9.480;2022-11-15T04:17:59;9.80;92.10
1347;DHT22;667;48.796;9.480;2022-11-15T04:20:29;9.80;92.10
1347;DHT22;667;48.796;9.480;2022-11-15T04:23:19;9.80;92.10
1347;DHT22;667;48.796;9.480;2022-11-15T04:26:10;9.80;92.20
1347;DHT22;667;48.796;9.480;2022-11-15T04:28:36;9.80;92.10
1347;DHT22;667;48.796;9.480;2022-11-15T04:31:24;9.80;92.10
1347;DHT22;667;48.796;9.480;2022-11-15T04:33:50;9.80;92.10
1347;DHT22;667;48.796;9.480;2022-11-15T04:36:16;9.80;92.10
1347;DHT22;667;48.796;9.480;2022-11-15T04:39:00;9.80;92.00
1347;DHT22;667;48.796;9.480;2022-11-15T04:41:25;9.80;92.00
1347;DHT22;667;48.796;9.480;2022-11-15T04:43:51;9.80;92.00
1347;DHT22;667;48.796;9.480;2022-11-15T04:46:17;9.80;92.00
1347;DHT22;667;48.796;9.480;2022-11-15T04:48:42;9.80;91.90
1347;DHT22;667;48.796;9.480;2022-11-15T04:51:08;9.80;91.80
1347;DHT22;667;48.796;9.480;2022-11-15T04:53:34;9.80;91.80
1347;DHT22;667;48.796;9.480;2022-11-15T04:55:59;9.80;91.80
1347;DHT22;667;48.796;9.480;2022-11-15T04:58:25;9.80;92.00
1347;DHT22;667;48.796;9.480;2022-11-15T05:00:50;9.80;92.00
1347;DHT22;667;48.796;9.480;2022-11-15T05:03:16;9.80;92.00
1347;DHT22;667;48.796;9.480;2022-11-15T05:06:00;9.80;92.10
1347;DHT22;667;48.796;9.480;2022-11-15T05:08:26;9.80;92.10
1347;DHT22;667;48.796;9.480;2022-11-15T05:10:51;9.80;92.20
1347;DHT22;667;48.796;9.480;2022-11-15T05:13:17;9.80;92.20
1347;DHT22;667;48.796;9.480;2022-11-15T05:15:43;9.90;92.20
1347;DHT22;667;48.796;9.480;2022-11-15T05:18:09;9.90;92.10
1347;DHT22;667;48.796;9.480;2022-11-15T05:20:34;9.90;92.00
1347;DHT22;667;48.796;9.480;2022-11-15T05:23:00;9.90;91.90
1347;DHT22;667;48.796;9.480;2022-11-15T05:25:26;9.80;91.80
1347;DHT22;667;48.796;9.480;2022-11-15T05:27:51;9.80;91.70
1347;DHT22;667;48.796;9.480;2022-11-15T05:30:17;9.80;91.70
1347;DHT22;667;48.796;9.480;2022-11-15T05:32:43;9.80;91.70
1347;DHT22;667;48.796;9.480;2022-11-15T05:35:13;9.80;91.70
1347;DHT22;667;48.796;9.480;2022-11-15T05:37:40;9.80;91.70
1347;DHT22;667;48.796;9.480;2022-11-15T05:40:06;9.80;91.70
1347;DHT22;667;48.796;9.480;2022-11-15T05:42:32;9.80;91.70
1347;DHT22;667;48.796;9.480;2022-11-15T05:44:59;9.80;91.70
1347;DHT22;667;48.796;9.480;2022-11-15T05:47:27;9.80;91.70
1347;DHT22;667;48.796;9.480;2022-11-15T05:49:55;9.80;91.60
1347;DHT22;667;48.796;9.480;2022-11-15T05:52:24;9.70;91.60
1347;DHT22;667;48.796;9.480;2022-11-15T05:54:51;9.70;91.60
1347;DHT22;667;48.796;9.480;2022-11-15T05:57:17;9.70;91.70
1347;DHT22;667;48.796;9.480;2022-11-15T05:59:43;9.70;91.80
1347;DHT22;667;48.796;9.480;2022-11-15T06:02:10;9.70;91.90
1347;DHT22;667;48.796;9.480;2022-11-15T06:04:36;9.70;91.90
1347;DHT22;667;48.796;9.480;2022-11-15T06:07:04;9.70;91.80
1347;DHT22;667;48.796;9.480;2022-11-15T06:09:30;9.70;91.80
1347;DHT22;667;48.796;9.480;2022-11-15T06:11:55;9.70;91.70
1347;DHT22;667;48.796;9.480;2022-11-15T06:14:21;9.70;91.70
1347;DHT22;667;48.796;9.480;2022-11-15T06:16:46;9.70;91.60
1347;DHT22;667;48.796;9.480;2022-11-15T06:19:12;9.70;91.70
1347;DHT22;667;48.796;9.480;2022-11-15T06:21:37;9.70;91.60
1347;DHT22;667;48.796;9.480;2022-11-15T06:24:04;9.70;91.60
1347;DHT22;667;48.796;9.480;2022-11-15T06:26:29;9.70;91.60
1347;DHT22;667;48.796;9.480;2022-11-15T06:28:55;9.60;91.50
1347;DHT22;667;48.796;9.480;2022-11-15T06:31:20;9.60;91.40
1347;DHT22;667;48.796;9.480;2022-11-15T06:33:46;9.60;91.30
1347;DHT22;667;48.796;9.480;2022-11-15T06:36:13;9.60;91.20
1347;DHT22;667;48.796;9.480;2022-11-15T06:38:41;9.50;91.10
1347;DHT22;667;48.796;9.480;2022-11-15T06:41:08;9.50;91.00
1347;DHT22;667;48.796;9.480;2022-11-15T06:43:35;9.50;90.90
1347;DHT22;667;48.796;9.480;2022-11-15T06:46:01;9.40;90.80
1347;DHT22;667;48.796;9.480;2022-11-15T06:48:28;9.40;90.80
1347;DHT22;667;48.796;9.480;2022-11-15T06:50:56;9.40;90.80
1347;DHT22;667;48.796;9.480;2022-11-15T06:53:23;9.30;90.80
1347;DHT22;667;48.796;9.480;2022-11-15T06:55:48;9.30;90.90
1347;DHT22;667;48.796;9.480;2022-11-15T06:58:17;9.30;91.00
1347;DHT22;667;48.796;9.480;2022-11-15T07:00:43;9.30;91.00
1347;DHT22;667;48.796;9.480;2022-11-15T07:03:09;9.30;91.00
1347;DHT22;667;48.796;9.480;2022-11-15T07:05:35;9.20;90.90
1347;DHT22;667;48.796;9.480;2022-11-15T07:08:01;9.20;91.00
1347;DHT22;667;48.796;9.480;2022-11-15T07:10:27;9.20;91.10
1347;DHT22;667;48.796;9.480;2022-11-15T07:12:54;9.20;91.10
1347;DHT22;667;48.796;9.480;2022-11-15T07:15:23;9.20;91.20
1347;DHT22;667;48.796;9.480;2022-11-15T07:17:49;9.20;91.20
1347;DHT22;667;48.796;9.480;2022-11-15T07:20:15;9.20;91.10
1347;DHT22;667;48.796;9.480;2022-11-15T07:22:41;9.20;91.10
1347;DHT22;667;48.796;9.480;2022-11-15T07:25:08;9.20;91.20
1347;DHT22;667;48.796;9.480;2022-11-15T07:27:34;9.20;91.30
1347;DHT22;667;48.796;9.480;2022-11-15T07:30:00;9.20;91.40
1347;DHT22;667;48.796;9.480;2022-11-15T07:32:26;9.20;91.60
1347;DHT22;667;48.796;9.480;2022-11-15T07:34:52;9.20;91.80
1347;DHT22;667;48.796;9.480;2022-11-15T07:37:17;9.30;92.00
1347;DHT22;667;48.796;9.480;2022-11-15T07:39:43;9.30;92.10
1347;DHT22;667;48.796;9.480;2022-11-15T07:42:09;9.40;92.10
1347;DHT22;667;48.796;9.480;2022-11-15T07:44:53;9.40;92.00
1347;DHT22;667;48.796;9.480;2022-11-15T07:47:19;9.40;92.00
1347;DHT22;667;48.796;9.480;2022-11-15T07:49:45;9.50;92.10
1347;DHT22;667;48.796;9.480;2022-11-15T07:52:12;9.50;92.10
1347;DHT22;667;48.796;9.480;2022-11-15T07:54:38;9.60;92.20
1347;DHT22;667;48.796;9.480;2022-11-15T07:57:04;9.60;92.10
1347;DHT22;667;48.796;9.480;2022-11-15T07:59:29;9.70;92.20
1347;DHT22;667;48.796;9.480;2022-11-15T08:01:55;9.70;92.20
1347;DHT22;667;48.796;9.480;2022-11-15T08:04:21;9.80;92.30
1347;DHT22;667;48.796;9.480;2022-11-15T08:06:46;9.90;92.30
1347;DHT22;667;48.796;9.480;2022-11-15T08:09:12;10.00;91.80
1347;DHT22;667;48.796;9.480;2022-11-15T08:11:38;10.30;92.30
1347;DHT22;667;48.796;9.480;2022-11-15T08:14:03;10.70;92.40
1347;DHT22;667;48.796;9.480;2022-11-15T08:16:29;10.90;92.20
1347;DHT22;667;48.796;9.480;2022-11-15T08:18:55;11.30;92.30
1347;DHT22;667;48.796;9.480;2022-11-15T08:21:21;11.60;91.50
1347;DHT22;667;48.796;9.480;2022-11-15T08:23:47;11.80;91.10
1347;DHT22;667;48.796;9.480;2022-11-15T08:26:13;12.20;90.90
1347;DHT22;667;48.796;9.480;2022-11-15T08:28:38;12.50;90.20
1347;DHT22;667;48.796;9.480;2022-11-15T08:31:04;12.60;89.10
1347;DHT22;667;48.796;9.480;2022-11-15T08:33:31;12.60;88.10
1347;DHT22;667;48.796;9.480;2022-11-15T08:35:58;12.50;87.30
1347;DHT22;667;48.796;9.480;2022-11-15T08:38:24;12.40;86.40
1347;DHT22;667;48.796;9.480;2022-11-15T08:41:01;12.40;86.10
1347;DHT22;667;48.796;9.480;2022-11-15T08:43:27;12.30;86.30
1347;DHT22;667;48.796;9.480;2022-11-15T08:45:56;12.30;86.90
1347;DHT22;667;48.796;9.480;2022-11-15T08:48:22;12.40;87.40
1347;DHT22;667;48.796;9.480;2022-11-15T08:50:47;12.40;87.50
1347;DHT22;667;48.796;9.480;2022-11-15T08:53:13;12.40;87.50
1347;DHT22;667;48.796;9.480;2022-11-15T08:55:39;12.40;87.60
1347;DHT22;667;48.796;9.480;2022-11-15T08:58:05;12.40;87.90
1347;DHT22;667;48.796;9.480;2022-11-15T09:00:32;12.40;88.20
1347;DHT22;667;48.796;9.480;2022-11-15T09:02:58;12.40;89.10
1347;DHT22;667;48.796;9.480;2022-11-15T09:05:25;12.40;88.90
1347;DHT22;667;48.796;9.480;2022-11-15T09:07:54;12.40;88.90
1347;DHT22;667;48.796;9.480;2022-11-15T09:10:20;12.40;88.80
1347;DHT22;667;48.796;9.480;2022-11-15T09:12:46;12.80;90.00
1347;DHT22;667;48.796;9.480;2022-11-15T09:15:14;13.20;88.00
1347;DHT22;667;48.796;9.480;2022-11-15T09:17:40;14.30;86.10
1347;DHT22;667;48.796;9.480;2022-11-15T09:20:06;15.60;81.80
1347;DHT22;667;48.796;9.480;2022-11-15T09:22:32;16.30;77.10
1347;DHT22;667;48.796;9.480;2022-11-15T09:24:57;16.60;75.20
1347;DHT22;667;48.796;9.480;2022-11-15T09:27:27;17.10;73.90
1347;DHT22;667;48.796;9.480;2022-11-15T09:29:52;17.20;71.10
1347;DHT22;667;48.796;9.480;2022-11-15T09:32:18;16.90;69.90
1347;DHT22;667;48.796;9.480;2022-11-15T09:34:43;16.50;70.50
1347;DHT22;667;48.796;9.480;2022-11-15T09:37:09;16.30;70.80
1347;DHT22;667;48.796;9.480;2022-11-15T09:39:34;16.40;71.50
1347;DHT22;667;48.796;9.480;2022-11-15T09:50:35;16.30;70.30
1347;DHT22;667;48.796;9.480;2022-11-15T09:53:01;15.90;70.80
1347;DHT22;667;48.796;9.480;2022-11-15T09:58:39;16.20;73.70
1347;DHT22;667;48.796;9.480;2022-11-15T10:01:12;17.20;72.10
1347;DHT22;667;48.796;9.480;2022-11-15T10:03:41;18.70;69.10
1347;DHT22;667;48.796;9.480;2022-11-15T10:06:24;19.50;65.50
1347;DHT22;667;48.796;9.480;2022-11-15T10:11:29;21.50;59.00
1347;DHT22;667;48.796;9.480;2022-11-15T10:13:59;23.00;56.30
1347;DHT22;667;48.796;9.480;2022-11-15T10:24:50;22.60;52.50
1347;DHT22;667;48.796;9.480;2022-11-15T10:27:18;21.90;53.60
1347;DHT22;667;48.796;9.480;2022-11-15T10:29:48;21.30;54.40
1347;DHT22;667;48.796;9.480;2022-11-15T10:32:16;20.60;54.70
1347;DHT22;667;48.796;9.480;2022-11-15T10:34:43;20.00;55.10
1347;DHT22;667;48.796;9.480;2022-11-15T10:37:08;19.50;56.20
1347;DHT22;667;48.796;9.480;2022-11-15T10:39:34;18.90;58.00
1347;DHT22;667;48.796;9.480;2022-11-15T10:42:18;18.50;58.70
1347;DHT22;667;48.796;9.480;2022-11-15T10:44:50;18.20;59.70
1347;DHT22;667;48.796;9.480;2022-11-15T10:47:27;17.90;61.10
1347;DHT22;667;48.796;9.480;2022-11-15T10:50:31;17.60;61.80
1347;DHT22;667;48.796;9.480;2022-11-15T10:52:57;17.40;62.30
1347;DHT22;667;48.796;9.480;2022-11-15T10:55:30;17.10;63.00
1347;DHT22;667;48.796;9.480;2022-11-15T10:58:05;17.00;63.70
1347;DHT22;667;48.796;9.480;2022-11-15T11:00:36;16.90;64.20
1347;DHT22;667;48.796;9.480;2022-11-15T11:03:20;16.80;64.30
1347;DHT22;667;48.796;9.480;2022-11-15T11:05:48;16.70;64.80
1347;DHT22;667;48.796;9.480;2022-11-15T11:08:27;16.70;65.10
1347;DHT22;667;48.796;9.480;2022-11-15T11:10:58;16.50;65.40
1347;DHT22;667;48.796;9.480;2022-11-15T11:18:44;16.30;68.20
1347;DHT22;667;48.796;9.480;2022-11-15T11:21:22;16.30;68.60
1347;DHT22;667;48.796;9.480;2022-11-15T11:27:12;16.20;68.00
1347;DHT22;667;48.796;9.480;2022-11-15T11:30:08;16.20;68.20
1347;DHT22;667;48.796;9.480;2022-11-15T11:35:39;16.10;68.20
1347;DHT22;667;48.796;9.480;2022-11-15T11:40:51;15.90;68.80
1347;DHT22;667;48.796;9.480;2022-11-15T11:48:38;15.80;70.00
1347;DHT22;667;48.796;9.480;2022-11-15T11:51:27;15.70;70.00
1347;DHT22;667;48.796;9.480;2022-11-15T11:54:43;15.70;70.20
1347;DHT22;667;48.796;9.480;2022-11-15T11:57:05;15.70;70.70
1347;DHT22;667;48.796;9.480;2022-11-15T11:59:43;15.70;71.60
1347;DHT22;667;48.796;9.480;2022-11-15T12:02:34;15.70;71.40
1347;DHT22;667;48.796;9.480;2022-11-15T12:05:20;15.70;71.80
1347;DHT22;667;48.796;9.480;2022-11-15T12:07:49;15.70;72.00
1347;DHT22;667;48.796;9.480;2022-11-15T12:10:26;15.70;72.10
1347;DHT22;667;48.796;9.480;2022-11-15T12:15:37;15.80;73.00
1347;DHT22;667;48.796;9.480;2022-11-15T12:18:04;15.80;73.20
1347;DHT22;667;48.796;9.480;2022-11-15T12:20:34;15.80;72.90
1347;DHT22;667;48.796;9.480;2022-11-15T12:23:21;15.90;72.50
1347;DHT22;667;48.796;9.480;2022-11-15T12:25:56;15.90;72.50
1347;DHT22;667;48.796;9.480;2022-11-15T12:28:40;15.90;73.00
1347;DHT22;667;48.796;9.480;2022-11-15T12:31:24;15.90;73.30
1347;DHT22;667;48.796;9.480;2022-11-15T12:33:56;16.00;73.10
1347;DHT22;667;48.796;9.480;2022-11-15T12:39:06;16.00;72.70
1347;DHT22;667;48.796;9.480;2022-11-15T12:59:57;16.00;73.30
1347;DHT22;667;48.796;9.480;2022-11-15T13:17:48;15.80;75.70
1347;DHT22;667;48.796;9.480;2022-11-15T13:25:53;15.80;77.40
1347;DHT22;667;48.796;9.480;2022-11-15T13:33:39;15.80;78.40
1347;DHT22;667;48.796;9.480;2022-11-15T13:38:43;15.80;80.40
1347;DHT22;667;48.796;9.480;2022-11-15T13:41:20;15.80;81.10
1347;DHT22;667;48.796;9.480;2022-11-15T13:43:47;15.80;81.70
1347;DHT22;667;48.796;9.480;2022-11-15T13:48:42;15.80;80.90
1347;DHT22;667;48.796;9.480;2022-11-15T13:56:49;15.80;81.90
1347;DHT22;667;48.796;9.480;2022-11-15T14:01:50;15.80;83.20
1347;DHT22;667;48.796;9.480;2022-11-15T14:04:19;15.80;83.80
1347;DHT22;667;48.796;9.480;2022-11-15T14:06:48;15.80;84.50
1347;DHT22;667;48.796;9.480;2022-11-15T14:11:58;15.80;85.90
1347;DHT22;667;48.796;9.480;2022-11-15T14:14:27;15.80;86.40
1347;DHT22;667;48.796;9.480;2022-11-15T14:16:58;15.80;86.80
1347;DHT22;667;48.796;9.480;2022-11-15T14:24:36;15.70;87.30
1347;DHT22;667;48.796;9.480;2022-11-15T14:29:47;15.70;87.80
1347;DHT22;667;48.796;9.480;2022-11-15T14:32:20;15.70;87.90
1347;DHT22;667;48.796;9.480;2022-11-15T14:34:47;15.60;87.80
1347;DHT22;667;48.796;9.480;2022-11-15T14:37:23;15.60;87.80
1347;DHT22;667;48.796;9.480;2022-11-15T14:39:49;15.60;88.00
1347;DHT22;667;48.796;9.480;2022-11-15T14:42:15;15.50;88.00
1347;DHT22;667;48.796;9.480;2022-11-15T14:44:41;15.50;88.10
1347;DHT22;667;48.796;9.480;2022-11-15T14:47:06;15.50;88.30
1347;DHT22;667;48.796;9.480;2022-11-15T14:49:32;15.50;88.50
1347;DHT22;667;48.796;9.480;2022-11-15T14:51:58;15.40;88.70
1347;DHT22;667;48.796;9.480;2022-11-15T14:54:23;15.40;88.70
1347;DHT22;667;48.796;9.480;2022-11-15T14:56:49;15.40;88.80
1347;DHT22;667;48.796;9.480;2022-11-15T14:59:14;15.40;89.00
1347;DHT22;667;48.796;9.480;2022-11-15T15:01:40;15.30;89.20
1347;DHT22;667;48.796;9.480;2022-11-15T15:04:05;15.30;89.40
1347;DHT22;667;48.796;9.480;2022-11-15T15:06:31;15.30;89.70
1347;DHT22;667;48.796;9.480;2022-11-15T15:08:57;15.20;89.80
1347;DHT22;667;48.796;9.480;2022-11-15T15:11:24;15.20;90.00
1347;DHT22;667;48.796;9.480;2022-11-15T15:13:51;15.20;90.10
1347;DHT22;667;48.796;9.480;2022-11-15T15:16:18;15.20;90.20
1347;DHT22;667;48.796;9.480;2022-11-15T15:18:43;15.10;90.20
1347;DHT22;667;48.796;9.480;2022-11-15T15:21:24;15.10;90.30
1347;DHT22;667;48.796;9.480;2022-11-15T15:23:51;15.00;90.40
1347;DHT22;667;48.796;9.480;2022-11-15T15:26:19;15.00;90.30
1347;DHT22;667;48.796;9.480;2022-11-15T15:28:44;15.00;90.30
1347;DHT22;667;48.796;9.480;2022-11-15T15:31:10;14.90;90.20
1347;DHT22;667;48.796;9.480;2022-11-15T15:33:36;14.90;90.20
1347;DHT22;667;48.796;9.480;2022-11-15T15:36:02;14.90;90.20
1347;DHT22;667;48.796;9.480;2022-11-15T15:38:28;14.80;90.20
1347;DHT22;667;48.796;9.480;2022-11-15T15:40:53;14.80;90.20
1347;DHT22;667;48.796;9.480;2022-11-15T15:43:20;14.80;90.20
1347;DHT22;667;48.796;9.480;2022-11-15T15:45:45;14.80;90.20
1347;DHT22;667;48.796;9.480;2022-11-15T15:48:13;14.70;90.00
1347;DHT22;667;48.796;9.480;2022-11-15T15:50:39;14.70;90.10
1347;DHT22;667;48.796;9.480;2022-11-15T15:53:05;14.70;90.10
1347;DHT22;667;48.796;9.480;2022-11-15T15:55:31;14.70;90.10
1347;DHT22;667;48.796;9.480;2022-11-15T15:57:57;14.60;90.00
1347;DHT22;667;48.796;9.480;2022-11-15T16:00:24;14.60;90.00
1347;DHT22;667;48.796;9.480;2022-11-15T16:02:50;14.60;90.10
1347;DHT22;667;48.796;9.480;2022-11-15T16:05:16;14.60;90.10
1347;DHT22;667;48.796;9.480;2022-11-15T16:07:43;14.50;90.00
1347;DHT22;667;48.796;9.480;2022-11-15T16:10:29;14.50;90.10
1347;DHT22;667;48.796;9.480;2022-11-15T16:12:56;14.50;90.20
1347;DHT22;667;48.796;9.480;2022-11-15T16:15:24;14.50;90.20
1347;DHT22;667;48.796;9.480;2022-11-15T16:17:52;14.40;90.20
1347;DHT22;667;48.796;9.480;2022-11-15T16:20:48;14.40;90.30
1347;DHT22;667;48.796;9.480;2022-11-15T16:23:21;14.40;90.40
1347;DHT22;667;48.796;9.480;2022-11-15T16:25:51;14.30;90.30
1347;DHT22;667;48.796;9.480;2022-11-15T16:28:21;14.30;90.40
1347;DHT22;667;48.796;9.480;2022-11-15T16:30:48;14.20;90.30
1347;DHT22;667;48.796;9.480;2022-11-15T16:33:14;14.20;90.40
1347;DHT22;667;48.796;9.480;2022-11-15T16:35:40;14.10;90.30
1347;DHT22;667;48.796;9.480;2022-11-15T16:38:07;14.10;90.40
1347;DHT22;667;48.796;9.480;2022-11-15T16:40:34;14.10;90.20
1347;DHT22;667;48.796;9.480;2022-11-15T16:43:00;14.10;90.10
1347;DHT22;667;48.796;9.480;2022-11-15T16:45:27;14.10;90.10
1347;DHT22;667;48.796;9.480;2022-11-15T16:47:54;14.10;90.10
1347;DHT22;667;48.796;9.480;2022-11-15T16:50:26;14.00;90.10
1347;DHT22;667;48.796;9.480;2022-11-15T16:52:54;14.00;90.20
1347;DHT22;667;48.796;9.480;2022-11-15T16:55:21;14.00;90.20
1347;DHT22;667;48.796;9.480;2022-11-15T16:57:47;14.00;90.20
1347;DHT22;667;48.796;9.480;2022-11-15T17:00:13;13.90;90.20
1347;DHT22;667;48.796;9.480;2022-11-15T17:02:44;14.00;90.30
1347;DHT22;667;48.796;9.480;2022-11-15T17:05:09;13.90;90.30
1347;DHT22;667;48.796;9.480;2022-11-15T17:07:35;13.90;90.30
1347;DHT22;667;48.796;9.480;2022-11-15T17:10:01;13.90;90.40
1347;DHT22;667;48.796;9.480;2022-11-15T17:12:27;13.90;90.40
1347;DHT22;667;48.796;9.480;2022-11-15T17:14:53;13.90;90.50
1347;DHT22;667;48.796;9.480;2022-11-15T17:17:18;13.90;90.60
1347;DHT22;667;48.796;9.480;2022-11-15T17:19:44;13.90;90.60
1347;DHT22;667;48.796;9.480;2022-11-15T17:22:09;13.80;90.60
1347;DHT22;667;48.796;9.480;2022-11-15T17:24:35;13.80;90.60
1347;DHT22;667;48.796;9.480;2022-11-15T17:27:00;13.80;90.70
1347;DHT22;667;48.796;9.480;2022-11-15T17:29:26;13.80;90.70
1347;DHT22;667;48.796;9.480;2022-11-15T17:31:51;13.80;90.70
1347;DHT22;667;48.796;9.480;2022-11-15T17:34:17;13.70;90.70
1347;DHT22;667;48.796;9.480;2022-11-15T17:36:42;13.70;90.70
1347;DHT22;667;48.796;9.480;2022-11-15T17:39:08;13.70;90.70
1347;DHT22;667;48.796;9.480;2022-11-15T17:41:34;13.70;90.70
1347;DHT22;667;48.796;9.480;2022-11-15T17:44:00;13.70;90.80
1347;DHT22;667;48.796;9.480;2022-11-15T17:46:28;13.60;90.70
1347;DHT22;667;48.796;9.480;2022-11-15T17:48:54;13.60;90.80
1347;DHT22;667;48.796;9.480;2022-11-15T17:51:21;13.60;90.80
1347;DHT22;667;48.796;9.480;2022-11-15T17:53:48;13.60;90.80
1347;DHT22;667;48.796;9.480;2022-11-15T17:56:19;13.60;90.80
1347;DHT22;667;48.796;9.480;2022-11-15T17:58:56;13.60;90.90
1347;DHT22;667;48.796;9.480;2022-11-15T18:03:51;13.50;90.90
1347;DHT22;667;48.796;9.480;2022-11-15T18:06:18;13.50;90.90
1347;DHT22;667;48.796;9.480;2022-11-15T18:08:47;13.50;90.80
1347;DHT22;667;48.796;9.480;2022-11-15T18:11:15;13.50;90.90
1347;DHT22;667;48.796;9.480;2022-11-15T18:13:43;13.50;90.80
1347;DHT22;667;48.796;9.480;2022-11-15T18:16:20;13.50;90.90
1347;DHT22;667;48.796;9.480;2022-11-15T18:18:46;13.50;90.90
1347;DHT22;667;48.796;9.480;2022-11-15T18:21:12;13.40;90.80
1347;DHT22;667;48.796;9.480;2022-11-15T18:23:39;13.40;90.80
1347;DHT22;667;48.796;9.480;2022-11-15T18:26:06;13.40;90.90
1347;DHT22;667;48.796;9.480;2022-11-15T18:28:36;13.40;90.90
1347;DHT22;667;48.796;9.480;2022-11-15T18:31:04;13.40;90.80
1347;DHT22;667;48.796;9.480;2022-11-15T18:33:36;13.30;90.80
1347;DHT22;667;48.796;9.480;2022-11-15T18:36:04;13.30;90.80
1347;DHT22;667;48.796;9.480;2022-11-15T18:38:30;13.30;90.80
1347;DHT22;667;48.796;9.480;2022-11-15T18:41:04;13.30;90.90
1347;DHT22;667;48.796;9.480;2022-11-15T18:43:30;13.30;90.90
1347;DHT22;667;48.796;9.480;2022-11-15T18:46:08;13.30;90.90
1347;DHT22;667;48.796;9.480;2022-11-15T18:48:35;13.30;91.10
1347;DHT22;667;48.796;9.480;2022-11-15T18:51:03;13.30;90.90
1347;DHT22;667;48.796;9.480;2022-11-15T18:53:29;13.30;90.90
1347;DHT22;667;48.796;9.480;2022-11-15T18:56:03;13.30;90.90
1347;DHT22;667;48.796;9.480;2022-11-15T18:58:33;13.30;90.90
1347;DHT22;667;48.796;9.480;2022-11-15T19:01:01;13.30;91.00
1347;DHT22;667;48.796;9.480;2022-11-15T19:03:31;13.30;91.10
1347;DHT22;667;48.796;9.480;2022-11-15T19:06:01;13.30;91.10